Terminal Aerodrome Forecast
Issued by NWS Buffalo, NY

Home | Current Version | Previous Version | Text Only | Print | Product List | Glossary On
Versions: 1 2 3 4 5 6 7 8 9 10 11 12 13 14 15 16 17 18 19 20 21 22 23 24 25 26 27
000
FTUS41 KBUF 141446 AAB
TAFBUF
TAF AMD
KBUF 141446Z 1415/1512 34008KT 2SM -SHSN OVC015
     FM141530 34008KT P6SM VCSH OVC025
     FM141700 30008KT P6SM BKN025
     FM142200 27008KT P6SM SCT025 BKN060
     FM151100 22004KT 3SM -SN BKN080=

USA.gov is the U.S. government's official web portal to all federal, state and local government web resources and services.